Main page
METAR-TAF:

METAR-TAF

Airports :

Bad Vöslau Airport

Bad Vöslau, Austria

latitude: 47-57-52N, longitude: 016-15-34E, elevation: 233 m

Current weather observation

The report was made 9 hours and 38 minutes ago, at 18:00 UTC
Wind 2 kt from variable directions
Temperature 26°C
Humidity 34%
Pressure

METAR: LOAV 161800Z VRB02KT 35KM FEW100AC 26/09

Time: 05:38 (03:38 UTC)

Forecast

The report was made 16 hours and 13 minutes ago, at 11:25 UTC
Forecast valid from 16 at 12 UTC to 16 at 21 UTC
Wind 8 kt from the North/Northeast
Visibility 10 km or more
Scattered clouds at a height of 5000 ft
Becoming
from 16 at 15 UTC to 16 at 19 UTC
Wind 5 kt from the East

TAF: LOAV 161125Z 1612/1621 02008KT 9999 SCT050 BECMG 1615/1619 10005KT

Weather observations and forecasts of more than 4000 airports (METAR and TAF reports).

The available stations are represented by yellow and red dots on the map.

Hover mouse over dot to see the name of the station.

Then click to see weather observations and forecasts.

To change the map : click on the green buttons with a black cross to zoom in, on the green button with a dash to zoom out, or on the green arrows for adjacent maps.


METAR-TAF: